Pagina principale
METAR-TAF:

METAR-TAF

Aeroporti :

Aeroporto Internazionale Jomo Kenyatta

Nairobi, Kenya

latitudine: 01-19S, longitudine: 036-55E, altezza: 1624 m

Osservazione

Il bollettino è stato emesso 47 minuti fa, alle 18:30 UTC
Vento 7 kt da nord-est
Temperature 20°C
Umidità 60%
Pressione 1021 hPa
Visibilità 10 km o più
Nubi sparse ad un'altezza di 2200 ft

METAR: HKJK 241830Z 04007KT 9999 SCT022 20/12 Q1021 NOSIG

Ora: 22:17 (19:17 UTC)


TAF: mancante

Osservazioni e previsioni meteorologiche di più di 4000 aeroporti (messaggi METAR e TAF).

Le stazioni disponibili sono rappresentate dai dischi gialli e rossi sulla carta.

Puntare il mouse per vedere il nome della stazione.

Clicca sopra per visualizzare le osservazioni e previsioni meteorologiche.

Per cambiare la mappa : fare clic sui pulsanti verdi con una croce nera per ingrandire, il pulsante verde con un trattino per diminuire, o sulla freccia verde per le mappe adiacenti.


METAR-TAF: